Terminal Aerodrome Forecast
Issued by NWS

Current Version | Previous Version | Text Only | Print | Product List | Glossary On
Versions: 1 2 3 4 5 6 7 8 9 10 11 12 13 14 15 16 17 18
960
FTAK31 PAJN 162332
TAFAJN
TAF
PAJN 162332Z 1700/1724 08007KT P6SM -SHRA FEW005 BKN030 OVC040
     FM170900 08005KT P6SM -SHRA SCT025 OVC040
     FM171300 10008KT 6SM -SHRA BR OVC025
      TEMPO 1713/1717 4SM -SHRA
     FM172000 11014KT P6SM SCT025 OVC050=

USA.gov is the U.S. government's official web portal to all federal, state and local government web resources and services.